sensor_id;sensor_type;location;lat;lon;timestamp;temperature;humidity
21340;DHT22;10828;47.064;15.422;2023-06-14T00:00:47;16.30;99.90
21340;DHT22;10828;47.064;15.422;2023-06-14T00:03:16;16.30;99.90
21340;DHT22;10828;47.064;15.422;2023-06-14T00:05:43;16.30;99.90
21340;DHT22;10828;47.064;15.422;2023-06-14T00:08:11;16.30;99.90
21340;DHT22;10828;47.064;15.422;2023-06-14T00:10:39;16.30;99.90
21340;DHT22;10828;47.064;15.422;2023-06-14T00:13:10;16.30;99.90
21340;DHT22;10828;47.064;15.422;2023-06-14T00:15:36;16.20;99.90
21340;DHT22;10828;47.064;15.422;2023-06-14T00:18:04;16.20;99.90
21340;DHT22;10828;47.064;15.422;2023-06-14T00:20:32;16.30;99.90
21340;DHT22;10828;47.064;15.422;2023-06-14T00:23:10;16.30;99.90
21340;DHT22;10828;47.064;15.422;2023-06-14T00:25:38;16.40;99.90
21340;DHT22;10828;47.064;15.422;2023-06-14T00:28:04;16.40;99.90
21340;DHT22;10828;47.064;15.422;2023-06-14T00:30:32;16.30;99.90
21340;DHT22;10828;47.064;15.422;2023-06-14T00:33:02;16.20;99.90
21340;DHT22;10828;47.064;15.422;2023-06-14T00:35:28;16.20;99.90
21340;DHT22;10828;47.064;15.422;2023-06-14T00:37:54;16.20;99.90
21340;DHT22;10828;47.064;15.422;2023-06-14T00:40:20;16.10;99.90
21340;DHT22;10828;47.064;15.422;2023-06-14T00:42:48;16.10;99.90
21340;DHT22;10828;47.064;15.422;2023-06-14T00:45:16;16.00;99.90
21340;DHT22;10828;47.064;15.422;2023-06-14T00:47:43;16.00;99.90
21340;DHT22;10828;47.064;15.422;2023-06-14T00:50:12;16.00;99.90
21340;DHT22;10828;47.064;15.422;2023-06-14T00:52:39;16.00;99.90
21340;DHT22;10828;47.064;15.422;2023-06-14T00:55:05;16.00;99.90
21340;DHT22;10828;47.064;15.422;2023-06-14T00:57:34;16.00;99.90
21340;DHT22;10828;47.064;15.422;2023-06-14T01:00:03;16.00;99.90
21340;DHT22;10828;47.064;15.422;2023-06-14T01:02:37;16.00;99.90
21340;DHT22;10828;47.064;15.422;2023-06-14T01:05:06;16.00;99.90
21340;DHT22;10828;47.064;15.422;2023-06-14T01:08:13;16.10;99.90
21340;DHT22;10828;47.064;15.422;2023-06-14T01:11:02;16.00;99.90
21340;DHT22;10828;47.064;15.422;2023-06-14T01:13:39;16.00;99.90
21340;DHT22;10828;47.064;15.422;2023-06-14T01:16:08;16.00;99.90
21340;DHT22;10828;47.064;15.422;2023-06-14T01:18:34;15.90;99.90
21340;DHT22;10828;47.064;15.422;2023-06-14T01:21:00;15.90;99.90
21340;DHT22;10828;47.064;15.422;2023-06-14T01:23:32;15.80;99.90
21340;DHT22;10828;47.064;15.422;2023-06-14T01:26:00;15.80;99.90
21340;DHT22;10828;47.064;15.422;2023-06-14T01:28:28;15.70;99.90
21340;DHT22;10828;47.064;15.422;2023-06-14T01:31:01;15.80;99.90
21340;DHT22;10828;47.064;15.422;2023-06-14T01:33:31;15.80;99.90
21340;DHT22;10828;47.064;15.422;2023-06-14T01:35:58;15.70;99.90
21340;DHT22;10828;47.064;15.422;2023-06-14T01:38:26;15.80;99.90
21340;DHT22;10828;47.064;15.422;2023-06-14T01:40:56;15.80;99.90
21340;DHT22;10828;47.064;15.422;2023-06-14T01:43:25;15.80;99.90
21340;DHT22;10828;47.064;15.422;2023-06-14T01:45:54;15.80;99.90
21340;DHT22;10828;47.064;15.422;2023-06-14T01:48:20;15.80;99.90
21340;DHT22;10828;47.064;15.422;2023-06-14T01:50:49;15.70;99.90
21340;DHT22;10828;47.064;15.422;2023-06-14T01:53:21;15.70;99.90
21340;DHT22;10828;47.064;15.422;2023-06-14T01:55:50;15.70;99.90
21340;DHT22;10828;47.064;15.422;2023-06-14T01:58:25;15.70;99.90
21340;DHT22;10828;47.064;15.422;2023-06-14T02:00:51;15.70;99.90
21340;DHT22;10828;47.064;15.422;2023-06-14T02:03:22;15.70;99.90
21340;DHT22;10828;47.064;15.422;2023-06-14T02:05:48;15.80;99.90
21340;DHT22;10828;47.064;15.422;2023-06-14T02:08:14;15.80;99.90
21340;DHT22;10828;47.064;15.422;2023-06-14T02:10:40;15.80;99.90
21340;DHT22;10828;47.064;15.422;2023-06-14T02:13:08;15.80;99.90
21340;DHT22;10828;47.064;15.422;2023-06-14T02:15:33;15.70;99.90
21340;DHT22;10828;47.064;15.422;2023-06-14T02:18:04;15.70;99.90
21340;DHT22;10828;47.064;15.422;2023-06-14T02:20:30;15.60;99.90
21340;DHT22;10828;47.064;15.422;2023-06-14T02:23:02;15.60;99.90
21340;DHT22;10828;47.064;15.422;2023-06-14T02:25:30;15.60;99.90
21340;DHT22;10828;47.064;15.422;2023-06-14T02:27:56;15.50;99.90
21340;DHT22;10828;47.064;15.422;2023-06-14T02:30:28;15.50;99.90
21340;DHT22;10828;47.064;15.422;2023-06-14T02:32:54;15.50;99.90
21340;DHT22;10828;47.064;15.422;2023-06-14T02:35:19;15.50;99.90
21340;DHT22;10828;47.064;15.422;2023-06-14T02:37:49;15.40;99.90
21340;DHT22;10828;47.064;15.422;2023-06-14T02:40:15;15.40;99.90
21340;DHT22;10828;47.064;15.422;2023-06-14T02:42:45;15.30;99.90
21340;DHT22;10828;47.064;15.422;2023-06-14T02:45:13;15.40;99.90
21340;DHT22;10828;47.064;15.422;2023-06-14T02:47:41;15.40;99.90
21340;DHT22;10828;47.064;15.422;2023-06-14T02:50:14;15.40;99.90
21340;DHT22;10828;47.064;15.422;2023-06-14T02:52:40;15.30;99.90
21340;DHT22;10828;47.064;15.422;2023-06-14T02:55:10;15.30;99.90
21340;DHT22;10828;47.064;15.422;2023-06-14T02:57:44;15.20;99.90
21340;DHT22;10828;47.064;15.422;2023-06-14T03:00:16;15.20;99.90
21340;DHT22;10828;47.064;15.422;2023-06-14T03:02:42;15.20;99.90
21340;DHT22;10828;47.064;15.422;2023-06-14T03:05:10;15.20;99.90
21340;DHT22;10828;47.064;15.422;2023-06-14T03:07:36;15.20;99.90
21340;DHT22;10828;47.064;15.422;2023-06-14T03:10:11;15.20;99.90
21340;DHT22;10828;47.064;15.422;2023-06-14T03:12:39;15.20;99.90
21340;DHT22;10828;47.064;15.422;2023-06-14T03:15:08;15.20;99.90
21340;DHT22;10828;47.064;15.422;2023-06-14T03:17:34;15.20;99.90
21340;DHT22;10828;47.064;15.422;2023-06-14T03:20:06;15.20;99.90
21340;DHT22;10828;47.064;15.422;2023-06-14T03:22:34;15.20;99.90
21340;DHT22;10828;47.064;15.422;2023-06-14T03:25:00;15.20;99.90
21340;DHT22;10828;47.064;15.422;2023-06-14T03:27:27;15.30;99.90
21340;DHT22;10828;47.064;15.422;2023-06-14T03:29:54;15.30;99.90
21340;DHT22;10828;47.064;15.422;2023-06-14T03:32:20;15.30;99.90
21340;DHT22;10828;47.064;15.422;2023-06-14T03:34:48;15.40;99.90
21340;DHT22;10828;47.064;15.422;2023-06-14T03:37:14;15.30;99.90
21340;DHT22;10828;47.064;15.422;2023-06-14T03:39:47;15.30;99.90
21340;DHT22;10828;47.064;15.422;2023-06-14T03:42:13;15.30;99.90
21340;DHT22;10828;47.064;15.422;2023-06-14T03:44:40;15.30;99.90
21340;DHT22;10828;47.064;15.422;2023-06-14T03:47:08;15.20;99.90
21340;DHT22;10828;47.064;15.422;2023-06-14T03:49:35;15.20;99.90
21340;DHT22;10828;47.064;15.422;2023-06-14T03:52:02;15.20;99.90
21340;DHT22;10828;47.064;15.422;2023-06-14T03:54:31;15.20;99.90
21340;DHT22;10828;47.064;15.422;2023-06-14T03:56:59;15.20;99.90
21340;DHT22;10828;47.064;15.422;2023-06-14T03:59:27;15.20;99.90
21340;DHT22;10828;47.064;15.422;2023-06-14T04:01:55;15.30;99.90
21340;DHT22;10828;47.064;15.422;2023-06-14T04:04:21;15.30;99.90
21340;DHT22;10828;47.064;15.422;2023-06-14T04:06:56;15.30;99.90
21340;DHT22;10828;47.064;15.422;2023-06-14T04:09:26;15.30;99.90
21340;DHT22;10828;47.064;15.422;2023-06-14T04:11:52;15.30;99.90
21340;DHT22;10828;47.064;15.422;2023-06-14T04:14:20;15.30;99.90
21340;DHT22;10828;47.064;15.422;2023-06-14T04:16:47;15.30;99.90
21340;DHT22;10828;47.064;15.422;2023-06-14T04:19:15;15.30;99.90
21340;DHT22;10828;47.064;15.422;2023-06-14T04:21:44;15.40;99.90
21340;DHT22;10828;47.064;15.422;2023-06-14T04:24:10;15.30;99.90
21340;DHT22;10828;47.064;15.422;2023-06-14T04:26:43;15.40;99.90
21340;DHT22;10828;47.064;15.422;2023-06-14T04:29:14;15.40;99.90
21340;DHT22;10828;47.064;15.422;2023-06-14T04:31:45;15.50;99.90
21340;DHT22;10828;47.064;15.422;2023-06-14T04:34:13;15.50;99.90
21340;DHT22;10828;47.064;15.422;2023-06-14T04:36:43;15.50;99.90
21340;DHT22;10828;47.064;15.422;2023-06-14T04:39:22;15.50;99.90
21340;DHT22;10828;47.064;15.422;2023-06-14T04:41:51;15.60;99.90
21340;DHT22;10828;47.064;15.422;2023-06-14T04:44:23;15.60;99.90
21340;DHT22;10828;47.064;15.422;2023-06-14T04:46:56;15.60;99.90
21340;DHT22;10828;47.064;15.422;2023-06-14T04:49:31;15.60;99.90
21340;DHT22;10828;47.064;15.422;2023-06-14T04:51:57;15.60;99.90
21340;DHT22;10828;47.064;15.422;2023-06-14T04:54:34;15.60;99.90
21340;DHT22;10828;47.064;15.422;2023-06-14T04:57:04;15.60;99.90
21340;DHT22;10828;47.064;15.422;2023-06-14T04:59:33;15.70;99.90
21340;DHT22;10828;47.064;15.422;2023-06-14T05:02:02;15.70;99.90
21340;DHT22;10828;47.064;15.422;2023-06-14T05:04:28;15.70;99.90
21340;DHT22;10828;47.064;15.422;2023-06-14T05:06:54;15.80;99.90
21340;DHT22;10828;47.064;15.422;2023-06-14T05:09:24;15.80;99.90
21340;DHT22;10828;47.064;15.422;2023-06-14T18:54:40;19.20;99.90
21340;DHT22;10828;47.064;15.422;2023-06-14T18:57:33;19.20;99.90
21340;DHT22;10828;47.064;15.422;2023-06-14T19:00:57;19.20;99.90
21340;DHT22;10828;47.064;15.422;2023-06-14T19:04:42;19.10;99.90
21340;DHT22;10828;47.064;15.422;2023-06-14T19:08:13;19.10;99.90
21340;DHT22;10828;47.064;15.422;2023-06-14T19:11:37;19.10;99.90
21340;DHT22;10828;47.064;15.422;2023-06-14T19:14:26;19.00;99.90
21340;DHT22;10828;47.064;15.422;2023-06-14T19:17:26;18.90;99.90
21340;DHT22;10828;47.064;15.422;2023-06-14T19:19:52;18.90;99.90
21340;DHT22;10828;47.064;15.422;2023-06-14T19:22:18;18.90;99.90
21340;DHT22;10828;47.064;15.422;2023-06-14T19:24:44;18.90;99.90
21340;DHT22;10828;47.064;15.422;2023-06-14T19:27:10;18.80;99.90
21340;DHT22;10828;47.064;15.422;2023-06-14T19:29:36;18.80;99.90
21340;DHT22;10828;47.064;15.422;2023-06-14T19:32:08;18.70;99.90
